createdAt,value
2023-05-18T00:00:34.407Z,96646.38
2023-05-18T00:01:35.973Z,96648.78
2023-05-18T00:02:38.232Z,96653.22
2023-05-18T00:03:40.541Z,96653.91
2023-05-18T00:04:43.070Z,96652.78
2023-05-18T00:05:45.006Z,96642.34
2023-05-18T00:06:47.263Z,96647.50
2023-05-18T00:07:48.935Z,96646.38
2023-05-18T00:08:51.039Z,96648.19
2023-05-18T00:09:52.577Z,96645.38
2023-05-18T00:10:54.342Z,96641.78
2023-05-18T00:11:56.839Z,96645.38
2023-05-18T00:12:58.416Z,96635.38
2023-05-18T00:14:00.216Z,96636.19
2023-05-18T00:15:02.211Z,96628.53
2023-05-18T00:16:03.809Z,96638.44
2023-05-18T00:17:05.491Z,96628.25
2023-05-18T00:18:07.277Z,96628.38
2023-05-18T00:19:09.070Z,96623.50
2023-05-18T00:20:11.173Z,96632.69
2023-05-18T00:21:13.220Z,96630.88
2023-05-18T00:22:20.824Z,96629.63
2023-05-18T00:23:24.851Z,96629.97
2023-05-18T00:24:26.416Z,96623.72
2023-05-18T00:25:28.161Z,96630.00
2023-05-18T00:26:30.189Z,96631.13
2023-05-18T00:27:32.746Z,96623.03
2023-05-18T00:28:34.317Z,96627.91
2023-05-18T00:29:36.094Z,96625.97
2023-05-18T00:30:37.667Z,96624.97
2023-05-18T00:31:39.918Z,96626.00
2023-05-18T00:32:41.985Z,96626.03
2023-05-18T00:33:45.555Z,96628.53
2023-05-18T00:34:47.501Z,96626.00
2023-05-18T00:35:49.171Z,96632.69
2023-05-18T00:36:50.884Z,96628.56
2023-05-18T00:37:52.426Z,96628.28
2023-05-18T00:38:53.962Z,96624.09
2023-05-18T00:39:55.481Z,96622.13
2023-05-18T00:40:57.115Z,96627.03
2023-05-18T00:41:58.628Z,96624.22
2023-05-18T00:43:00.832Z,96619.91
2023-05-18T00:44:02.452Z,96627.41
2023-05-18T00:45:04.627Z,96629.25
2023-05-18T00:46:06.751Z,96619.63
2023-05-18T00:47:09.433Z,96622.13
2023-05-18T00:48:11.130Z,96622.84
2023-05-18T00:49:13.284Z,96624.78
2023-05-18T00:50:15.112Z,96627.84
2023-05-18T00:51:18.029Z,96625.06
2023-05-18T00:52:21.366Z,96620.63
2023-05-18T00:53:22.971Z,96628.13
2023-05-18T00:54:25.771Z,96621.19
2023-05-18T00:55:28.611Z,96620.88
2023-05-18T00:56:34.157Z,96619.09
2023-05-18T00:57:36.716Z,96618.25
2023-05-18T00:58:41.950Z,96628.81
2023-05-18T00:59:44.187Z,96620.34
2023-05-18T01:00:46.139Z,96620.88
2023-05-18T01:01:48.633Z,96620.06
2023-05-18T01:02:51.060Z,96615.06
2023-05-18T01:03:56.507Z,96611.84
2023-05-18T01:04:58.141Z,96616.31
2023-05-18T01:06:00.111Z,96621.31
2023-05-18T01:07:06.894Z,96606.59
2023-05-18T01:08:08.645Z,96614.38
2023-05-18T01:09:12.184Z,96614.66
2023-05-18T01:10:16.557Z,96610.19
2023-05-18T01:11:27.456Z,96607.56
2023-05-18T01:12:40.409Z,96612.31
2023-05-18T01:13:56.265Z,96615.06
2023-05-18T01:15:08.866Z,96617.59
2023-05-18T01:16:19.306Z,96613.28
2023-05-18T01:17:51.001Z,96614.81
2023-05-18T01:19:00.972Z,96618.25
2023-05-18T01:20:27.244Z,96613.81
2023-05-18T01:22:04.171Z,96618.41
2023-05-18T01:23:30.026Z,96612.16
2023-05-18T01:24:42.781Z,96607.69
2023-05-18T01:26:00.877Z,96613.41
2023-05-18T01:27:07.046Z,96603.94
2023-05-18T01:28:18.354Z,96610.47
2023-05-18T01:29:21.610Z,96607.13
2023-05-18T01:30:23.747Z,96610.06
2023-05-18T01:31:25.958Z,96603.66
2023-05-18T01:32:27.585Z,96604.78
2023-05-18T01:33:29.138Z,96611.03
2023-05-18T01:34:31.045Z,96611.44
2023-05-18T01:35:34.342Z,96607.03
2023-05-18T01:36:36.425Z,96614.22
2023-05-18T01:37:38.070Z,96603.00
2023-05-18T01:38:43.148Z,96608.66
2023-05-18T01:39:45.927Z,96606.88
2023-05-18T01:41:05.373Z,96606.88
2023-05-18T01:42:19.392Z,96604.34
2023-05-18T01:43:27.813Z,96609.53
2023-05-18T01:44:36.819Z,96607.84
2023-05-18T01:45:43.996Z,96609.38
2023-05-18T01:47:00.648Z,96605.34
2023-05-18T01:48:04.217Z,96605.59
2023-05-18T01:49:13.391Z,96610.88
2023-05-18T01:50:19.205Z,96607.41
2023-05-18T01:51:22.782Z,96605.06
2023-05-18T01:52:40.214Z,96606.84
2023-05-18T01:53:50.867Z,96600.47
2023-05-18T01:54:56.466Z,96604.22
2023-05-18T01:55:59.961Z,96598.09
2023-05-18T01:57:03.124Z,96607.69
2023-05-18T01:58:07.932Z,96598.69
2023-05-18T01:59:10.354Z,96595.31
2023-05-18T02:00:13.332Z,96604.34
2023-05-18T02:01:20.107Z,96595.75
2023-05-18T02:02:21.825Z,96601.03
2023-05-18T02:03:23.495Z,96602.56
2023-05-18T02:04:25.168Z,96601.16
2023-05-18T02:05:27.108Z,96603.94
2023-05-18T02:06:29.031Z,96603.25
2023-05-18T02:07:30.548Z,96597.38
2023-05-18T02:08:32.113Z,96595.75
2023-05-18T02:09:33.692Z,96595.47
2023-05-18T02:10:35.670Z,96598.38
2023-05-18T02:11:37.564Z,96596.00
2023-05-18T02:12:39.137Z,96599.75
2023-05-18T02:13:40.992Z,96599.19
2023-05-18T02:14:42.692Z,96593.09
2023-05-18T02:15:44.988Z,96590.31
2023-05-18T02:16:53.214Z,96598.78
2023-05-18T02:17:58.213Z,96596.84
2023-05-18T02:19:00.354Z,96597.50
2023-05-18T02:20:01.982Z,96595.16
2023-05-18T02:21:04.223Z,96602.50
2023-05-18T02:22:08.158Z,96596.69
2023-05-18T02:23:11.052Z,96589.84
2023-05-18T02:24:13.291Z,96599.16
2023-05-18T02:25:17.047Z,96598.59
2023-05-18T02:26:18.570Z,96597.91
2023-05-18T02:27:25.340Z,96596.94
2023-05-18T02:28:26.924Z,96593.75
2023-05-18T02:29:28.494Z,96591.25
2023-05-18T02:30:33.160Z,96595.41
2023-05-18T02:31:35.945Z,96585.00
2023-05-18T02:32:43.003Z,96587.88
2023-05-18T02:33:44.631Z,96587.06
2023-05-18T02:34:46.416Z,96580.13
2023-05-18T02:35:47.945Z,96586.50
2023-05-18T02:36:49.494Z,96584.00
2023-05-18T02:37:53.933Z,96588.31
2023-05-18T02:38:57.163Z,96578.44
2023-05-18T02:39:58.962Z,96592.06
2023-05-18T02:41:00.471Z,96581.22
2023-05-18T02:42:02.053Z,96581.94
2023-05-18T02:43:03.630Z,96576.94
2023-05-18T02:44:06.567Z,96579.44
2023-05-18T02:45:08.813Z,96582.50
2023-05-18T02:46:10.602Z,96579.31
2023-05-18T02:47:12.716Z,96576.66
2023-05-18T02:48:14.484Z,96579.44
2023-05-18T02:49:16.499Z,96577.94
2023-05-18T02:50:18.106Z,96577.34
2023-05-18T02:51:21.821Z,96576.94
2023-05-18T02:52:23.894Z,96576.50
2023-05-18T02:53:26.479Z,96585.09
2023-05-18T02:54:33.398Z,96577.19
2023-05-18T02:55:35.939Z,96575.81
2023-05-18T02:56:44.865Z,96576.78
2023-05-18T02:57:58.246Z,96576.22
2023-05-18T02:59:17.066Z,96573.16
2023-05-18T03:00:19.570Z,96569.97
2023-05-18T03:01:21.396Z,96577.31
2023-05-18T03:02:27.822Z,96576.50
2023-05-18T03:03:29.787Z,96579.69
2023-05-18T03:04:31.952Z,96573.72
2023-05-18T03:05:33.822Z,96573.13
2023-05-18T03:06:36.046Z,96572.47
2023-05-18T03:07:37.906Z,96569.81
2023-05-18T03:08:41.125Z,96574.38
2023-05-18T03:09:44.447Z,96572.31
2023-05-18T03:10:46.057Z,96567.03
2023-05-18T03:11:49.215Z,96573.59
2023-05-18T03:12:50.970Z,96572.31
2023-05-18T03:13:52.712Z,96573.41
2023-05-18T03:14:54.242Z,96574.97
2023-05-18T03:15:56.695Z,96571.50
2023-05-18T03:16:58.465Z,96570.91
2023-05-18T03:18:00.513Z,96571.75
2023-05-18T03:19:02.829Z,96570.38
2023-05-18T03:20:14.558Z,96571.59
2023-05-18T03:21:17.464Z,96569.81
2023-05-18T03:22:20.023Z,96575.78
2023-05-18T03:23:21.889Z,96568.84
2023-05-18T03:24:26.460Z,96567.72
2023-05-18T03:25:28.010Z,96566.75
2023-05-18T03:26:33.435Z,96567.72
2023-05-18T03:27:34.990Z,96573.72
2023-05-18T03:28:38.534Z,96565.94
2023-05-18T03:29:40.124Z,96573.59
2023-05-18T03:30:42.346Z,96567.72
2023-05-18T03:31:44.626Z,96568.00
2023-05-18T03:32:48.599Z,96565.50
2023-05-18T03:33:51.182Z,96573.41
2023-05-18T03:34:53.065Z,96572.72
2023-05-18T03:35:55.674Z,96569.97
2023-05-18T03:36:58.135Z,96573.41
2023-05-18T03:37:59.758Z,96572.84
2023-05-18T03:39:01.678Z,96574.94
2023-05-18T03:40:15.078Z,96581.03
2023-05-18T03:41:18.254Z,96575.88
2023-05-18T03:42:19.901Z,96570.34
2023-05-18T03:43:21.465Z,96578.00
2023-05-18T03:44:23.236Z,96576.19
2023-05-18T03:45:24.854Z,96574.66
2023-05-18T03:46:26.711Z,96569.41
2023-05-18T03:47:29.900Z,96577.03
2023-05-18T03:48:31.543Z,96573.72
2023-05-18T03:49:34.679Z,96574.69
2023-05-18T03:50:36.839Z,96578.03
2023-05-18T03:51:38.437Z,96579.44
2023-05-18T03:52:41.541Z,96576.78
2023-05-18T03:53:43.158Z,96576.66
2023-05-18T03:54:45.197Z,96585.66
2023-05-18T03:55:49.151Z,96582.22
2023-05-18T03:56:51.207Z,96585.97
2023-05-18T03:57:53.853Z,96590.38
2023-05-18T03:58:58.753Z,96581.50
2023-05-18T04:00:00.768Z,96583.06
2023-05-18T04:01:02.639Z,96586.41
2023-05-18T04:02:04.267Z,96588.03
2023-05-18T04:03:06.877Z,96586.25
2023-05-18T04:04:18.078Z,96591.13
2023-05-18T04:05:19.999Z,96589.16
2023-05-18T04:06:23.723Z,96586.53
2023-05-18T04:07:25.349Z,96593.34
2023-05-18T04:08:30.188Z,96594.06
2023-05-18T04:09:33.830Z,96591.28
2023-05-18T04:10:35.456Z,96591.00
2023-05-18T04:11:37.052Z,96602.81
2023-05-18T04:12:39.341Z,96596.13
2023-05-18T04:13:41.951Z,96598.38
2023-05-18T04:14:43.653Z,96588.50
2023-05-18T04:15:45.829Z,96597.97
2023-05-18T04:16:47.458Z,96593.41
2023-05-18T04:17:51.627Z,96594.66
2023-05-18T04:18:53.998Z,96594.22
2023-05-18T04:19:56.201Z,96586.72
2023-05-18T04:20:57.860Z,96596.84
2023-05-18T04:22:00.226Z,96604.50
2023-05-18T04:23:01.802Z,96599.22
2023-05-18T04:24:07.299Z,96600.47
2023-05-18T04:25:11.665Z,96608.81
2023-05-18T04:26:14.097Z,96602.28
2023-05-18T04:27:15.608Z,96607.00
2023-05-18T04:28:17.239Z,96598.22
2023-05-18T04:29:19.300Z,96599.50
2023-05-18T04:30:23.221Z,96602.25
2023-05-18T04:31:27.940Z,96602.72
2023-05-18T04:32:31.068Z,96603.53
2023-05-18T04:33:34.056Z,96602.31
2023-05-18T04:34:37.459Z,96617.88
2023-05-18T04:35:39.304Z,96613.53
2023-05-18T04:36:42.721Z,96609.59
2023-05-18T04:37:44.458Z,96609.53
2023-05-18T04:38:50.817Z,96612.72
2023-05-18T04:39:54.085Z,96604.50
2023-05-18T04:40:57.020Z,96605.22
2023-05-18T04:41:58.872Z,96601.91
2023-05-18T04:43:02.065Z,96598.09
2023-05-18T04:44:05.944Z,96606.72
2023-05-18T04:45:08.215Z,96598.34
2023-05-18T04:46:09.829Z,96600.69
2023-05-18T04:47:11.486Z,96605.72
2023-05-18T04:48:14.242Z,96608.91
2023-05-18T04:49:15.822Z,96610.56
2023-05-18T04:50:18.034Z,96600.00
2023-05-18T04:51:22.446Z,96605.16
2023-05-18T04:52:25.030Z,96603.06
2023-05-18T04:53:27.516Z,96602.88
2023-05-18T04:54:32.949Z,96601.84
2023-05-18T04:55:35.482Z,96603.16
2023-05-18T04:56:47.409Z,96595.81
2023-05-18T04:57:50.508Z,96602.41
2023-05-18T04:58:52.085Z,96603.88
2023-05-18T04:59:53.699Z,96601.84
2023-05-18T05:00:57.434Z,96602.16
2023-05-18T05:01:59.028Z,96607.88
2023-05-18T05:03:01.547Z,96609.69
2023-05-18T05:04:03.840Z,96598.63
2023-05-18T05:05:05.711Z,96605.06
2023-05-18T05:06:07.442Z,96607.81
2023-05-18T05:07:10.142Z,96603.91
2023-05-18T05:08:12.402Z,96611.00
2023-05-18T05:09:14.826Z,96612.97
2023-05-18T05:10:16.464Z,96609.16
2023-05-18T05:11:18.027Z,96603.28
2023-05-18T05:12:19.694Z,96605.47
2023-05-18T05:13:21.735Z,96609.78
2023-05-18T05:14:23.519Z,96604.09
2023-05-18T05:15:26.016Z,96615.16
2023-05-18T05:16:29.000Z,96614.72
2023-05-18T05:17:30.703Z,96607.13
2023-05-18T05:18:32.451Z,96608.38
2023-05-18T05:19:34.170Z,96609.78
2023-05-18T05:20:35.730Z,96608.75
2023-05-18T05:21:37.407Z,96603.63
2023-05-18T05:22:39.031Z,96599.78
2023-05-18T05:23:45.554Z,96604.06
2023-05-18T05:24:47.730Z,96601.47
2023-05-18T05:25:49.324Z,96613.06
2023-05-18T05:26:50.912Z,96605.97
2023-05-18T05:27:52.472Z,96607.94
2023-05-18T05:28:55.652Z,96605.78
2023-05-18T05:29:57.799Z,96617.19
2023-05-18T05:30:59.555Z,96617.56
2023-05-18T05:32:01.382Z,96614.19
2023-05-18T05:33:03.148Z,96608.13
2023-05-18T05:34:05.471Z,96612.31
2023-05-18T05:35:07.285Z,96616.22
2023-05-18T05:36:10.026Z,96604.53
2023-05-18T05:37:11.609Z,96608.50
2023-05-18T05:38:13.262Z,96611.00
2023-05-18T05:39:15.035Z,96610.34
2023-05-18T05:40:16.605Z,96616.03
2023-05-18T05:41:20.529Z,96606.28
2023-05-18T05:42:22.307Z,96612.03
2023-05-18T05:43:24.390Z,96607.91
2023-05-18T05:44:25.962Z,96611.56
2023-05-18T05:45:30.786Z,96613.19
2023-05-18T05:46:36.058Z,96612.44
2023-05-18T05:47:38.596Z,96611.66
2023-05-18T05:48:40.704Z,96622.88
2023-05-18T05:49:43.365Z,96614.28
2023-05-18T05:50:44.923Z,96616.13
2023-05-18T05:51:46.872Z,96617.09
2023-05-18T05:52:48.529Z,96616.97
2023-05-18T05:53:51.441Z,96610.00
2023-05-18T05:54:52.999Z,96617.50
2023-05-18T05:55:55.902Z,96619.41
2023-05-18T05:56:57.831Z,96617.66
2023-05-18T05:57:59.837Z,96615.91
2023-05-18T05:59:01.700Z,96618.88
2023-05-18T06:00:04.874Z,96617.47
2023-05-18T06:01:22.974Z,96615.47
2023-05-18T06:02:25.746Z,96613.03
2023-05-18T06:03:29.385Z,96613.81
2023-05-18T06:04:33.581Z,96609.00
2023-05-18T06:05:36.415Z,96612.94
2023-05-18T06:06:40.220Z,96609.28
2023-05-18T06:07:43.290Z,96614.75
2023-05-18T06:08:45.348Z,96614.03
2023-05-18T06:09:46.999Z,96610.00
2023-05-18T06:10:49.665Z,96601.34
2023-05-18T06:11:52.865Z,96610.94
2023-05-18T06:12:55.118Z,96606.38
2023-05-18T06:14:00.774Z,96608.47
2023-05-18T06:15:02.601Z,96607.97
2023-05-18T06:16:04.346Z,96607.16
2023-05-18T06:17:06.553Z,96606.13
2023-05-18T06:18:08.965Z,96604.50
2023-05-18T06:19:11.192Z,96601.34
2023-05-18T06:20:13.691Z,96605.16
2023-05-18T06:21:16.080Z,96606.03
2023-05-18T06:22:18.087Z,96607.50
2023-05-18T06:23:39.555Z,96610.16
2023-05-18T06:25:01.567Z,96604.72
2023-05-18T06:26:41.570Z,96613.50
2023-05-18T06:28:00.143Z,96609.78
2023-05-18T06:29:18.584Z,96609.31
2023-05-18T06:30:38.728Z,96602.91
2023-05-18T06:31:47.486Z,96602.44
2023-05-18T06:32:55.189Z,96612.00
2023-05-18T06:33:56.728Z,96614.03
2023-05-18T06:34:58.456Z,96609.59
2023-05-18T06:36:00.062Z,96602.59
2023-05-18T06:37:01.865Z,96602.31
2023-05-18T06:38:03.946Z,96607.84
2023-05-18T06:39:05.741Z,96616.19
2023-05-18T06:40:08.774Z,96605.28
2023-05-18T06:41:10.426Z,96613.94
2023-05-18T06:42:12.320Z,96617.47
2023-05-18T06:43:27.069Z,96609.16
2023-05-18T06:44:39.087Z,96610.66
2023-05-18T06:45:53.160Z,96609.00
2023-05-18T06:47:07.998Z,96608.97
2023-05-18T06:48:09.787Z,96607.13
2023-05-18T06:49:11.345Z,96614.53
2023-05-18T06:50:12.814Z,96619.00
2023-05-18T06:51:16.235Z,96619.25
2023-05-18T06:52:19.078Z,96621.53
2023-05-18T06:53:20.876Z,96615.38
2023-05-18T06:54:22.449Z,96618.59
2023-05-18T06:55:24.067Z,96615.06
2023-05-18T06:56:26.439Z,96615.84
2023-05-18T06:57:29.260Z,96615.38
2023-05-18T06:58:30.858Z,96618.97
2023-05-18T06:59:35.615Z,96623.53
2023-05-18T07:00:38.318Z,96622.97
2023-05-18T07:01:41.360Z,96616.63
2023-05-18T07:02:44.367Z,96617.88
2023-05-18T07:03:46.233Z,96616.63
2023-05-18T07:04:48.701Z,96619.13
2023-05-18T07:05:50.285Z,96619.28
2023-05-18T07:06:51.926Z,96620.31
2023-05-18T07:07:53.619Z,96617.41
2023-05-18T07:08:56.372Z,96615.97
2023-05-18T07:09:58.898Z,96616.75
2023-05-18T07:11:02.415Z,96618.28
2023-05-18T07:12:04.304Z,96615.81
2023-05-18T07:13:06.263Z,96621.78
2023-05-18T07:14:07.865Z,96614.56
2023-05-18T07:15:11.463Z,96618.91
2023-05-18T07:16:13.070Z,96617.03
2023-05-18T07:17:14.841Z,96620.94
2023-05-18T07:18:16.468Z,96611.47
2023-05-18T07:19:18.180Z,96614.78
2023-05-18T07:20:19.876Z,96620.34
2023-05-18T07:21:21.455Z,96621.34
2023-05-18T07:22:22.978Z,96616.44
2023-05-18T07:23:24.520Z,96615.59
2023-05-18T07:24:26.044Z,96622.63
2023-05-18T07:25:28.193Z,96621.81
2023-05-18T07:26:29.844Z,96629.91
2023-05-18T07:27:31.694Z,96622.00
2023-05-18T07:28:33.180Z,96616.19
2023-05-18T07:29:34.969Z,96619.31
2023-05-18T07:30:36.594Z,96623.84
2023-05-18T07:31:40.595Z,96622.34
2023-05-18T07:32:45.155Z,96618.84
2023-05-18T07:33:48.298Z,96618.06
2023-05-18T07:34:49.895Z,96622.19
2023-05-18T07:35:51.413Z,96620.88
2023-05-18T07:36:53.914Z,96616.59
2023-05-18T07:37:55.402Z,96619.25
2023-05-18T07:38:57.439Z,96621.78
2023-05-18T07:39:59.314Z,96620.16
2023-05-18T07:41:01.007Z,96613.69
2023-05-18T07:42:02.681Z,96612.44
2023-05-18T07:43:04.183Z,96615.16
2023-05-18T07:44:05.679Z,96614.97
2023-05-18T07:45:08.183Z,96617.88
2023-05-18T07:46:09.701Z,96612.28
2023-05-18T07:47:11.741Z,96620.78
2023-05-18T07:48:13.491Z,96612.91
2023-05-18T07:49:15.158Z,96616.81
2023-05-18T07:50:16.825Z,96615.38
2023-05-18T07:51:18.727Z,96618.94
2023-05-18T07:52:20.365Z,96616.03
2023-05-18T07:53:21.993Z,96615.59
2023-05-18T07:54:23.537Z,96607.09
2023-05-18T07:55:25.508Z,96615.00
2023-05-18T07:56:27.148Z,96611.44
2023-05-18T07:57:30.588Z,96610.22
2023-05-18T07:58:32.117Z,96602.28
2023-05-18T07:59:33.674Z,96606.78
2023-05-18T08:00:35.322Z,96605.91
2023-05-18T08:01:38.423Z,96608.16
2023-05-18T08:02:40.414Z,96610.53
2023-05-18T08:03:42.304Z,96606.63
2023-05-18T08:04:43.977Z,96606.16
2023-05-18T08:05:45.509Z,96602.78
2023-05-18T08:06:47.399Z,96605.69
2023-05-18T08:07:49.792Z,96604.47
2023-05-18T08:08:51.867Z,96608.16
2023-05-18T08:09:53.431Z,96612.44
2023-05-18T08:10:54.982Z,96605.56
2023-05-18T08:11:57.732Z,96610.69
2023-05-18T08:12:59.252Z,96603.16
2023-05-18T08:14:00.902Z,96612.59
2023-05-18T08:15:02.487Z,96610.25
2023-05-18T08:17:11.877Z,96597.06
2023-05-18T08:18:13.501Z,96606.31
2023-05-18T08:19:15.381Z,96610.53
2023-05-18T08:20:17.271Z,96610.81
2023-05-18T08:21:18.801Z,96608.41
2023-05-18T08:22:21.133Z,96602.69
2023-05-18T08:23:25.226Z,96612.63
2023-05-18T08:24:27.039Z,96613.22
2023-05-18T08:25:28.977Z,96604.94
2023-05-18T08:26:30.680Z,96601.19
2023-05-18T08:27:32.204Z,96607.00
2023-05-18T08:28:33.734Z,96611.84
2023-05-18T08:29:35.450Z,96599.13
2023-05-18T08:30:37.023Z,96603.13
2023-05-18T08:31:40.448Z,96600.31
2023-05-18T08:32:43.295Z,96596.00
2023-05-18T08:33:45.369Z,96603.56
2023-05-18T08:34:47.090Z,96592.94
2023-05-18T08:35:49.122Z,96607.69
2023-05-18T08:36:50.749Z,96598.31
2023-05-18T08:37:52.367Z,96596.19
2023-05-18T08:38:53.949Z,96598.50
2023-05-18T08:39:55.923Z,96601.06
2023-05-18T08:41:23.366Z,96603.59
2023-05-18T08:42:49.845Z,96602.81
2023-05-18T08:44:02.098Z,96591.47
2023-05-18T08:45:40.160Z,96598.03
2023-05-18T08:46:42.816Z,96590.88
2023-05-18T08:47:45.468Z,96587.75
2023-05-18T08:48:50.437Z,96590.25
2023-05-18T08:49:55.511Z,96596.16
2023-05-18T08:50:58.436Z,96590.44
2023-05-18T08:52:04.275Z,96589.09
2023-05-18T08:53:06.535Z,96591.47
2023-05-18T08:54:09.792Z,96587.66
2023-05-18T08:55:12.566Z,96583.66
2023-05-18T08:56:14.710Z,96588.97
2023-05-18T08:57:20.128Z,96583.47
2023-05-18T08:58:36.134Z,96583.56
2023-05-18T08:59:41.896Z,96590.91
2023-05-18T09:00:43.590Z,96590.34
2023-05-18T09:01:45.290Z,96579.19
2023-05-18T09:02:48.459Z,96587.81
2023-05-18T09:03:50.639Z,96580.41
2023-05-18T09:04:54.004Z,96586.19
2023-05-18T09:05:57.110Z,96580.78
2023-05-18T09:07:00.145Z,96580.19
2023-05-18T09:08:03.396Z,96585.78
2023-05-18T09:09:05.389Z,96575.38
2023-05-18T09:10:07.404Z,96586.75
2023-05-18T09:11:10.096Z,96587.56
2023-05-18T09:12:12.888Z,96589.78
2023-05-18T09:13:18.929Z,96581.69
2023-05-18T09:14:22.984Z,96579.94
2023-05-18T09:15:26.068Z,96582.22
2023-05-18T09:16:28.777Z,96583.75
2023-05-18T09:17:30.530Z,96577.66
2023-05-18T09:18:32.059Z,96579.94
2023-05-18T09:19:35.409Z,96577.63
2023-05-18T09:20:36.911Z,96587.38
2023-05-18T09:21:38.945Z,96575.66
2023-05-18T09:22:40.830Z,96581.59
2023-05-18T09:23:43.581Z,96584.81
2023-05-18T09:24:45.499Z,96587.31
2023-05-18T09:25:49.952Z,96592.38
2023-05-18T09:26:51.678Z,96592.56
2023-05-18T09:27:53.431Z,96590.25
2023-05-18T09:28:55.081Z,96581.75
2023-05-18T09:29:58.010Z,96578.28
2023-05-18T09:30:59.596Z,96592.16
2023-05-18T09:32:04.991Z,96587.78
2023-05-18T09:33:17.405Z,96595.78
2023-05-18T09:34:19.434Z,96590.53
2023-05-18T09:35:21.858Z,96591.75
2023-05-18T09:36:26.688Z,96589.97
2023-05-18T09:37:28.198Z,96596.50
2023-05-18T09:38:29.751Z,96594.91
2023-05-18T09:39:31.492Z,96575.91
2023-05-18T09:40:33.343Z,96588.00
2023-05-18T09:41:34.887Z,96595.06
2023-05-18T09:42:37.874Z,96588.66
2023-05-18T09:43:40.175Z,96580.66
2023-05-18T09:44:41.721Z,96585.88
2023-05-18T09:45:45.734Z,96592.94
2023-05-18T09:46:47.249Z,96583.88
2023-05-18T09:47:50.624Z,96591.28
2023-05-18T09:48:54.205Z,96586.31
2023-05-18T09:49:58.576Z,96583.22
2023-05-18T09:51:00.464Z,96581.63
2023-05-18T09:52:02.780Z,96581.34
2023-05-18T09:53:11.439Z,96583.34
2023-05-18T09:54:12.990Z,96583.94
2023-05-18T09:55:21.168Z,96574.81
2023-05-18T09:56:24.294Z,96577.16
2023-05-18T09:57:25.994Z,96586.16
2023-05-18T09:58:32.049Z,96584.06
2023-05-18T09:59:36.675Z,96580.53
2023-05-18T10:00:43.305Z,96572.88
2023-05-18T10:01:56.838Z,96572.78
2023-05-18T10:02:58.421Z,96568.06
2023-05-18T10:04:03.980Z,96566.69
2023-05-18T10:05:06.662Z,96567.09
2023-05-18T10:06:10.617Z,96564.63
2023-05-18T10:07:16.744Z,96566.78
2023-05-18T10:08:18.447Z,96572.91
2023-05-18T10:09:20.163Z,96573.84
2023-05-18T10:10:24.119Z,96570.06
2023-05-18T10:11:27.511Z,96566.56
2023-05-18T10:12:29.360Z,96570.31
2023-05-18T10:13:31.982Z,96561.72
2023-05-18T10:14:36.495Z,96569.34
2023-05-18T10:15:38.034Z,96567.47
2023-05-18T10:16:41.847Z,96564.31
2023-05-18T10:17:45.262Z,96564.91
2023-05-18T10:18:47.782Z,96566.19
2023-05-18T10:19:52.891Z,96564.41
2023-05-18T10:20:59.196Z,96560.91
2023-05-18T10:22:06.109Z,96564.13
2023-05-18T10:23:11.261Z,96567.72
2023-05-18T10:24:17.900Z,96563.59
2023-05-18T10:25:22.048Z,96563.97
2023-05-18T10:26:28.094Z,96572.69
2023-05-18T10:27:30.201Z,96561.47
2023-05-18T10:28:38.207Z,96566.44
2023-05-18T10:29:41.007Z,96565.94
2023-05-18T10:30:43.280Z,96564.47
2023-05-18T10:31:46.882Z,96557.81
2023-05-18T10:32:49.325Z,96559.72
2023-05-18T10:33:52.646Z,96563.28
2023-05-18T10:34:56.293Z,96554.69
2023-05-18T10:35:58.516Z,96556.72
2023-05-18T10:37:05.161Z,96562.47
2023-05-18T10:38:09.835Z,96565.03
2023-05-18T10:39:12.058Z,96562.00
2023-05-18T10:40:15.556Z,96561.59
2023-05-18T10:41:21.504Z,96562.19
2023-05-18T10:42:25.560Z,96558.53
2023-05-18T10:43:28.582Z,96553.28
2023-05-18T10:44:31.313Z,96550.28
2023-05-18T10:45:35.154Z,96541.25
2023-05-18T10:46:38.269Z,96555.03
2023-05-18T10:47:42.439Z,96545.59
2023-05-18T10:48:48.323Z,96544.56
2023-05-18T10:49:49.905Z,96549.53
2023-05-18T10:50:53.444Z,96544.16
2023-05-18T10:51:55.928Z,96552.13
2023-05-18T10:52:59.918Z,96550.59
2023-05-18T10:54:12.355Z,96545.59
2023-05-18T10:55:15.531Z,96548.97
2023-05-18T10:56:17.305Z,96547.66
2023-05-18T10:57:21.142Z,96544.66
2023-05-18T10:58:26.289Z,96544.63
2023-05-18T10:59:28.035Z,96553.09
2023-05-18T11:00:34.217Z,96550.19
2023-05-18T11:01:37.350Z,96553.53
2023-05-18T11:02:42.693Z,96553.16
2023-05-18T11:03:44.936Z,96552.78
2023-05-18T11:04:48.187Z,96550.13
2023-05-18T11:06:14.792Z,96547.06
2023-05-18T11:07:17.317Z,96534.59
2023-05-18T11:08:29.445Z,96541.72
2023-05-18T11:09:32.000Z,96543.38
2023-05-18T11:10:47.297Z,96546.25
2023-05-18T11:11:58.374Z,96544.28
2023-05-18T11:13:02.339Z,96538.44
2023-05-18T11:14:03.899Z,96536.88
2023-05-18T11:15:06.033Z,96545.13
2023-05-18T11:16:08.763Z,96543.88
2023-05-18T11:17:25.266Z,96535.91
2023-05-18T11:18:42.048Z,96539.53
2023-05-18T11:20:13.108Z,96534.84
2023-05-18T11:21:35.674Z,96537.31
2023-05-18T11:23:02.488Z,96539.97
2023-05-18T11:24:23.372Z,96539.63
2023-05-18T11:25:25.614Z,96539.41
2023-05-18T11:26:29.962Z,96529.81
2023-05-18T11:27:33.106Z,96520.47
2023-05-18T11:28:43.051Z,96536.03
2023-05-18T11:29:49.643Z,96545.13
2023-05-18T11:30:51.676Z,96537.81
2023-05-18T11:31:54.905Z,96541.38
2023-05-18T11:33:13.449Z,96540.38
2023-05-18T11:34:35.486Z,96535.38
2023-05-18T11:36:11.270Z,96534.91
2023-05-18T11:37:17.548Z,96523.72
2023-05-18T11:38:19.291Z,96527.72
2023-05-18T11:39:24.913Z,96518.53
2023-05-18T11:40:58.645Z,96533.94
2023-05-18T11:42:02.200Z,96532.50
2023-05-18T11:43:03.696Z,96526.56
2023-05-18T11:44:07.229Z,96531.19
2023-05-18T11:45:10.452Z,96532.00
2023-05-18T11:46:18.255Z,96536.19
2023-05-18T11:47:19.997Z,96531.47
2023-05-18T11:48:26.714Z,96525.56
2023-05-18T11:49:29.302Z,96525.19
2023-05-18T11:50:31.165Z,96526.44
2023-05-18T11:51:33.370Z,96525.19
2023-05-18T11:52:46.843Z,96524.13
2023-05-18T11:53:48.806Z,96529.41
2023-05-18T11:54:52.342Z,96524.16
2023-05-18T11:55:54.760Z,96523.84
2023-05-18T11:56:58.594Z,96525.63
2023-05-18T11:58:00.512Z,96522.34
2023-05-18T11:59:14.744Z,96515.91
2023-05-18T12:00:17.179Z,96525.69
2023-05-18T12:01:19.065Z,96521.13
2023-05-18T12:02:22.484Z,96512.69
2023-05-18T12:03:26.303Z,96528.47
2023-05-18T12:04:29.324Z,96513.84
2023-05-18T12:05:31.714Z,96515.38
2023-05-18T12:06:34.035Z,96511.03
2023-05-18T12:07:36.724Z,96514.38
2023-05-18T12:08:43.856Z,96506.53
2023-05-18T12:09:47.067Z,96521.28
2023-05-18T12:10:49.414Z,96513.66
2023-05-18T12:11:51.528Z,96512.78
2023-05-18T12:12:53.677Z,96508.53
2023-05-18T12:13:56.531Z,96515.22
2023-05-18T12:15:03.954Z,96512.41
2023-05-18T12:16:07.265Z,96512.78
2023-05-18T12:17:10.693Z,96515.97
2023-05-18T12:18:12.578Z,96512.69
2023-05-18T12:19:14.287Z,96520.19
2023-05-18T12:20:17.620Z,96505.78
2023-05-18T12:21:22.723Z,96504.72
2023-05-18T12:22:27.004Z,96505.31
2023-05-18T12:23:40.754Z,96509.94
2023-05-18T12:24:43.741Z,96513.16
2023-05-18T12:25:45.296Z,96517.84
2023-05-18T12:26:47.398Z,96523.00
2023-05-18T12:27:51.611Z,96519.72
2023-05-18T12:28:53.415Z,96502.44
2023-05-18T12:29:55.063Z,96505.41
2023-05-18T12:30:56.929Z,96501.66
2023-05-18T12:31:58.654Z,96516.78
2023-05-18T12:33:02.510Z,96514.72
2023-05-18T12:34:04.134Z,96504.94